In Rescue
 
Open Full Screen Window  High Contrast Mode
Wind Gusting 21 knots
14
October 25, 2021 4:27 PM EDT
Present Weather: Drizzle
Weather Information
Wind Direction
  060 °
Wind Speed
  14 kt (16 mph)
Wind Gust
  21 kt (24 mph)
Altimeter
29.87 in
Visibility
10 SM
Temperature
08° C
46° F
Dewpoint
07° C
45° F
Humidity
93%
Sky Condition
Overcast @ 5,500 ft
Broken @ 4,100 ft
Scattered @ 1,700 ft
VFR

METAR KBAX 252027Z AUTO 06014G21KT 10SM DZ SCT017 BKN041 OVC055 08/07 A2987 RMK AO2 T00820072

FAA Disclaimer: The data displayed is for advisory purposes only and is not to be used for flight planning or operations.